Airfield :
LOGIN :

Register | Disclaimer

   EN    FR    IT 

 










Legend :    VFR   Marginal VFR   IFR   Intensive IFR   Very Intensive IFR
Visi :
Ceiling :
>= 8 km
>= 3000ft
5 to 8 km
1000 to 3000 ft
1500m to 5 km
500 to 1000 ft
800 to 1500m
200 to 500 ft
< 800m
< 200 ft
Symbols :   Thunderstorms  Fog  Heavy snow  Heavy precipitations  Wind > 20 kt
SIGMETs :     Misc.  Thunderstorms  Icing  Turbulence  Mountain Waves  Volcanic Ashes







- Airport Elevation : 19 ft
- IATA code : LCY
- Download approach charts


EGLC - London City

CURRENT METAR :
  • 201420Z AUTO 15007KT 120V190 9999 NCD 23/15 Q1014

EXPIRED METARs :
  • 201350Z AUTO 14007KT 9999 NCD 23/15 Q1014
  • 201320Z AUTO 14008KT 9999 NCD 23/14 Q1014
  • 201250Z AUTO 18007KT 140V230 9999 NCD 23/14 Q1014
  • 201220Z AUTO 17008KT 150V210 9999 NCD 23/14 Q1014
  • 201150Z AUTO 17007KT 100V220 9999 NCD 23/14 Q1014

TAF TAF EGLC
Valid from the 20 at 12:00 until the 20 at 21:00 UTC


201105Z 2012/2021 11006KT 9999 FEW045
PROB30
TEMPO 2013/2021 4000 +TSRA
ATIS : +44 20 7646 0224
No reported NOTAMs for that airfield.



MET'MAP, your aeronautical weather chart ! - Copyright ORBIFLY December 2007 - Disclaimer

ORBIFLY MET'MAP TEAM :

Programming & Development : Alexandra Zaïnal
Concept & Development : Baudouin d'Aumeries
Co-Development & Prog : Marc-Olivier Méhu
Technical & hardware support : Manuel Goepfert

Contact : metmap@orbifly.com




SOURCES & CREDITS :

   NOAA